Time;durP1;ratioP1;P1;durP2;ratioP2;P2;SDS_P1;SDS_P2;PMS_P1;PMS_P2;Temp;Humidity;BMP_temperature;BMP_pressure;BME280_temperature;BME280_humidity;BME280_pressure;Samples;Min_cycle;Max_cycle;Signal;HPM_P1;HPM_P2
2024/01/31 00:03:05;;;;;;;13.17;9.37;;;;;;;9.92;48.55;101451.09;10426898;28;20236;-65
2024/01/31 00:08:07;;;;;;;14.07;10.10;;;;;;;9.01;50.30;101480.47;10409457;28;20240;-65
2024/01/31 00:13:09;;;;;;;14.27;11.37;;;;;;;10.52;47.55;101434.00;10426250;28;20267;-65
2024/01/31 00:18:10;;;;;;;15.63;10.77;;;;;;;9.80;48.85;101411.22;10403267;28;20318;-65
2024/01/31 00:23:12;;;;;;;14.43;11.27;;;;;;;12.14;44.74;101410.34;10433806;28;20236;-65
2024/01/31 00:28:14;;;;;;;14.00;11.03;;;;;;;10.86;46.80;101560.25;10426792;28;20367;-65
2024/01/31 00:33:16;;;;;;;13.20;10.83;;;;;;;10.68;47.22;101513.72;10428536;28;20237;-65
2024/01/31 00:38:17;;;;;;;15.13;10.70;;;;;;;11.71;46.05;101418.19;10424012;28;20247;-64
2024/01/31 00:43:19;;;;;;;14.00;10.47;;;;;;;11.12;46.53;101508.75;10427624;28;21467;-65
2024/01/31 00:48:21;;;;;;;13.53;10.83;;;;;;;10.25;47.58;101611.34;10422502;28;20235;-65
2024/01/31 00:53:22;;;;;;;15.57;11.10;;;;;;;11.36;47.03;101422.47;10428304;28;20319;-65
2024/01/31 00:58:24;;;;;;;14.70;10.77;;;;;;;11.02;46.89;101455.19;10418926;28;20255;-65
2024/01/31 01:03:26;;;;;;;12.40;10.33;;;;;;;11.45;46.27;101436.78;10417149;28;20620;-65
2024/01/31 01:08:30;;;;;;;12.37;9.70;;;;;;;10.69;47.66;101484.13;10424352;28;20286;-65
2024/01/31 01:13:31;;;;;;;12.67;9.90;;;;;;;10.39;48.78;101485.16;10427263;28;20237;-65
2024/01/31 01:18:33;;;;;;;12.93;9.20;;;;;;;11.26;47.48;101393.03;10422652;28;20259;-64
2024/01/31 01:23:35;;;;;;;13.70;9.03;;;;;;;10.38;48.37;101523.63;10424455;28;20242;-65
2024/01/31 01:28:38;;;;;;;13.27;9.67;;;;;;;11.05;47.52;101416.53;10421890;28;20967;-65
2024/01/31 01:33:40;;;;;;;13.03;9.27;;;;;;;10.39;48.35;101536.00;10426901;28;20236;-65
2024/01/31 01:38:42;;;;;;;14.53;9.30;;;;;;;9.77;49.26;101543.34;10416380;28;20251;-65
2024/01/31 01:43:43;;;;;;;13.47;9.57;;;;;;;11.03;47.76;101418.53;10424605;28;20231;-64
2024/01/31 01:48:46;;;;;;;11.20;9.00;;;;;;;10.36;48.31;101557.72;10418100;28;20325;-64
2024/01/31 01:53:49;;;;;;;13.77;9.97;;;;;;;10.63;47.68;101538.28;10421741;28;20245;-65
2024/01/31 01:58:54;;;;;;;14.73;9.53;;;;;;;11.19;48.04;101367.81;10419409;28;20240;-65
2024/01/31 02:03:57;;;;;;;12.20;9.67;;;;;;;10.44;47.72;101568.53;10416163;28;20232;-65
2024/01/31 02:09:00;;;;;;;12.87;9.47;;;;;;;10.61;47.44;101555.44;10420417;28;20710;-65
2024/01/31 02:14:01;;;;;;;12.23;9.00;;;;;;;12.12;46.02;101350.63;10418805;28;20310;-65
2024/01/31 02:19:03;;;;;;;12.20;9.20;;;;;;;11.06;46.62;101560.22;10419309;28;20316;-65
2024/01/31 02:24:05;;;;;;;10.80;8.87;;;;;;;11.16;46.66;101448.50;10426588;28;20263;-65
2024/01/31 02:29:07;;;;;;;15.03;9.57;;;;;;;10.89;47.16;101476.09;10416121;28;20385;-64
2024/01/31 02:34:08;;;;;;;11.83;8.60;;;;;;;11.33;46.21;101422.75;10416477;28;20228;-64
2024/01/31 02:39:10;;;;;;;11.13;8.97;;;;;;;11.81;45.13;101381.41;10418175;28;20339;-64
2024/01/31 02:44:12;;;;;;;11.03;9.13;;;;;;;11.36;46.15;101416.25;10422545;28;20316;-65
2024/01/31 02:49:13;;;;;;;12.83;8.80;;;;;;;11.70;45.28;101411.13;10414039;28;20239;-65
2024/01/31 02:54:15;;;;;;;12.93;9.43;;;;;;;11.56;45.58;101446.47;10423103;28;20236;-65
2024/01/31 02:59:19;;;;;;;12.90;9.00;;;;;;;11.49;45.20;101474.84;10424774;28;20290;-65
2024/01/31 03:04:21;;;;;;;11.17;9.30;;;;;;;10.94;46.51;101484.53;10423710;28;20318;-64
2024/01/31 03:09:22;;;;;;;11.33;9.03;;;;;;;11.63;45.46;101383.25;10418045;28;20274;-64
2024/01/31 03:14:24;;;;;;;11.87;8.80;;;;;;;12.49;43.68;101371.88;10421525;28;20260;-65
2024/01/31 03:19:28;;;;;;;13.50;9.67;;;;;;;11.81;44.77;101413.59;10417279;28;20236;-64
2024/01/31 03:24:30;;;;;;;17.07;10.77;;;;;;;11.15;45.59;101468.25;10420097;28;20243;-64
2024/01/31 03:29:32;;;;;;;13.43;10.50;;;;;;;11.44;45.17;101510.19;10419939;28;20264;-65
2024/01/31 03:34:34;;;;;;;13.47;10.97;;;;;;;10.49;46.37;101554.75;10424467;28;20247;-65
2024/01/31 03:39:36;;;;;;;13.67;10.50;;;;;;;11.14;45.26;101517.47;10414395;28;20762;-65
2024/01/31 03:44:39;;;;;;;13.50;10.83;;;;;;;11.77;45.48;101400.63;10421132;28;20706;-65
2024/01/31 03:49:41;;;;;;;17.20;11.57;;;;;;;11.36;45.99;101410.91;10421162;28;20394;-65
2024/01/31 03:54:43;;;;;;;14.13;11.00;;;;;;;11.87;45.22;101387.97;10433962;28;20240;-65
2024/01/31 03:59:45;;;;;;;12.97;10.90;;;;;;;11.67;44.38;101540.13;10426005;28;20250;-66
2024/01/31 04:04:46;;;;;;;15.37;11.07;;;;;;;10.02;47.59;101547.34;10429045;28;20232;-65
2024/01/31 04:09:48;;;;;;;14.70;10.40;;;;;;;10.07;47.55;101528.22;10426878;28;20247;-65
2024/01/31 04:14:50;;;;;;;11.30;9.63;;;;;;;11.78;45.96;101370.16;10431079;28;20231;-64
2024/01/31 04:19:51;;;;;;;14.17;11.10;;;;;;;11.86;45.40;101465.91;10413234;28;20239;-65
2024/01/31 04:24:53;;;;;;;14.67;10.40;;;;;;;10.51;47.55;101520.66;10412058;28;20763;-65
2024/01/31 04:29:55;;;;;;;14.53;10.43;;;;;;;10.99;47.29;101470.72;10414210;28;20728;-65
2024/01/31 04:34:56;;;;;;;13.63;10.40;;;;;;;12.51;44.84;101396.72;10400660;28;20251;-65
2024/01/31 04:39:58;;;;;;;14.30;10.03;;;;;;;12.16;45.63;101397.59;10425957;28;20238;-67
2024/01/31 04:45:00;;;;;;;12.83;9.90;;;;;;;11.24;46.61;101534.38;10424064;28;20264;-67
2024/01/31 04:50:02;;;;;;;12.10;9.83;;;;;;;11.87;45.00;101574.91;10425341;28;20630;-66
2024/01/31 04:55:04;;;;;;;12.77;9.53;;;;;;;12.13;44.97;101538.31;10426427;28;20255;-64
2024/01/31 05:00:11;;;;;;;14.33;9.90;;;;;;;13.19;43.81;101453.34;10424009;28;20232;-64
2024/01/31 05:05:13;;;;;;;12.10;10.03;;;;;;;11.65;45.36;101587.72;10425848;28;20719;-64
2024/01/31 05:10:15;;;;;;;15.77;11.60;;;;;;;12.03;45.90;101458.88;10420528;28;20242;-64
2024/01/31 05:15:17;;;;;;;13.13;10.57;;;;;;;13.07;43.76;101450.91;10408947;28;20229;-64
2024/01/31 05:20:18;;;;;;;12.70;9.67;;;;;;;13.47;43.37;101440.53;10417606;28;20350;-65
2024/01/31 05:25:20;;;;;;;15.27;10.73;;;;;;;11.92;45.38;101615.53;10411776;28;20235;-64
2024/01/31 05:30:22;;;;;;;11.87;9.80;;;;;;;11.54;45.81;101607.50;10412474;28;20244;-63
2024/01/31 05:35:24;;;;;;;12.67;9.77;;;;;;;12.23;45.36;101460.41;10417525;28;20715;-63
2024/01/31 05:40:28;;;;;;;13.13;10.27;;;;;;;12.55;44.88;101454.50;10412227;28;20290;-64
2024/01/31 05:45:30;;;;;;;11.97;9.37;;;;;;;11.98;45.51;101585.44;10416263;28;20244;-65
2024/01/31 05:50:32;;;;;;;15.93;9.90;;;;;;;13.25;43.32;101501.91;10393125;28;20240;-65
2024/01/31 05:55:34;;;;;;;16.20;12.87;;;;;;;12.02;45.72;101511.69;10413137;28;21367;-64
2024/01/31 06:00:35;;;;;;;13.23;10.37;;;;;;;12.41;45.21;101424.66;10410825;28;20243;-65
2024/01/31 06:05:37;;;;;;;46.40;29.17;;;;;;;11.86;45.55;101567.84;10413693;28;20227;-65
2024/01/31 06:10:39;;;;;;;16.57;12.80;;;;;;;11.23;46.93;101440.72;10402273;28;20747;-65
2024/01/31 06:15:40;;;;;;;13.33;11.20;;;;;;;10.95;47.52;101430.00;10411524;28;20848;-65
2024/01/31 06:20:44;;;;;;;15.60;12.60;;;;;;;10.57;47.64;101513.91;10409117;28;20382;-65
2024/01/31 06:25:46;;;;;;;13.60;11.13;;;;;;;12.64;44.23;101415.09;10410695;28;20694;-63
2024/01/31 06:30:58;;;;;;;15.63;11.23;;;;;;;12.44;44.05;101473.50;10416984;28;20238;-65
2024/01/31 06:36:00;;;;;;;25.00;16.30;;;;;;;12.00;45.07;101446.63;10412255;28;20297;-64
2024/01/31 06:41:02;;;;;;;24.90;15.13;;;;;;;10.10;48.24;101509.22;10398788;28;20702;-65
2024/01/31 06:46:06;;;;;;;28.40;20.10;;;;;;;11.70;45.14;101490.75;10408432;28;20235;-64
2024/01/31 06:51:08;;;;;;;22.80;15.93;;;;;;;11.54;45.66;101532.41;10409830;28;20330;-65
2024/01/31 06:56:16;;;;;;;18.23;13.20;;;;;;;10.08;47.72;101604.81;10414641;28;20852;-65
2024/01/31 07:01:19;;;;;;;25.40;18.83;;;;;;;11.24;46.96;101429.03;10418788;28;20598;-64
2024/01/31 07:06:21;;;;;;;24.60;19.53;;;;;;;11.32;46.91;101434.47;10411485;28;21098;-65
2024/01/31 07:11:22;;;;;;;18.80;15.87;;;;;;;10.65;47.80;101481.91;10422054;28;20240;-65
2024/01/31 07:16:24;;;;;;;22.37;15.67;;;;;;;9.74;49.44;101488.31;10421006;28;20319;-65
2024/01/31 07:21:26;;;;;;;14.17;11.70;;;;;;;11.21;46.76;101448.06;10423824;28;20232;-64
2024/01/31 07:26:27;;;;;;;12.67;10.73;;;;;;;12.04;44.60;101471.31;10426184;28;20231;-64
2024/01/31 07:31:29;;;;;;;14.53;11.67;;;;;;;11.58;45.74;101532.97;10432821;28;20334;-65
2024/01/31 07:36:31;;;;;;;13.23;10.30;;;;;;;11.83;45.02;101499.28;10420380;28;20684;-66
2024/01/31 07:41:33;;;;;;;13.83;11.30;;;;;;;12.19;45.05;101465.22;10429161;28;20253;-65
2024/01/31 07:46:35;;;;;;;13.13;10.30;;;;;;;12.36;43.95;101546.75;10431237;28;20369;-66
2024/01/31 07:51:45;;;;;;;14.03;10.17;;;;;;;10.42;46.82;101629.41;10440146;28;20236;-65
2024/01/31 07:56:47;;;;;;;12.57;10.43;;;;;;;13.00;43.23;101486.69;10425793;28;20220;-67
2024/01/31 08:01:49;;;;;;;12.03;9.93;;;;;;;11.63;44.77;101681.72;10427067;28;20282;-65
2024/01/31 08:06:50;;;;;;;15.97;10.37;;;;;;;11.43;45.97;101535.28;10431232;28;20267;-64
2024/01/31 08:11:52;;;;;;;14.47;11.20;;;;;;;13.28;43.13;101450.56;10424752;28;20237;-64
2024/01/31 08:16:54;;;;;;;16.47;10.07;;;;;;;13.47;42.43;101526.59;10423935;28;20273;-64
2024/01/31 08:21:55;;;;;;;13.40;10.50;;;;;;;12.57;43.79;101630.72;10418148;28;20233;-65
2024/01/31 08:26:57;;;;;;;12.07;9.73;;;;;;;13.17;43.57;101482.22;10424819;28;20700;-65
2024/01/31 08:31:59;;;;;;;20.07;9.83;;;;;;;12.89;43.34;101558.47;10428415;28;20322;-66
2024/01/31 08:37:01;;;;;;;14.47;9.93;;;;;;;12.92;43.85;101550.13;10424975;28;20254;-65
2024/01/31 08:42:04;;;;;;;13.57;9.93;;;;;;;12.39;44.72;101552.81;10416672;28;20231;-65
2024/01/31 08:47:05;;;;;;;14.77;10.27;;;;;;;12.42;45.10;101557.88;10423260;28;20733;-66
2024/01/31 08:52:20;;;;;;;12.43;10.37;;;;;;;12.70;44.34;101540.72;10416468;28;20264;-65
2024/01/31 08:57:22;;;;;;;16.00;12.57;;;;;;;12.99;44.52;101501.09;10413898;28;20805;-66
2024/01/31 09:02:23;;;;;;;17.03;11.00;;;;;;;13.19;44.23;101461.41;10423611;28;20241;-64
2024/01/31 09:07:25;;;;;;;12.47;10.67;;;;;;;13.40;43.46;101547.06;10415717;28;20761;-65
2024/01/31 09:12:28;;;;;;;16.13;11.37;;;;;;;13.15;44.89;101476.19;10434361;28;20326;-65
2024/01/31 09:17:30;;;;;;;14.47;12.40;;;;;;;14.19;42.75;101475.03;10445194;28;20314;-65
2024/01/31 09:22:31;;;;;;;17.30;11.37;;;;;;;13.80;43.30;101532.09;10450615;28;20238;-65
2024/01/31 09:27:33;;;;;;;16.30;12.20;;;;;;;11.92;45.82;101604.81;10444451;28;20239;-65
2024/01/31 09:32:35;;;;;;;15.40;11.13;;;;;;;12.27;46.88;101451.06;10434592;28;20221;-65
2024/01/31 09:37:36;;;;;;;15.83;11.07;;;;;;;13.18;44.34;101497.38;10440694;28;20447;-65
2024/01/31 09:42:38;;;;;;;14.70;10.97;;;;;;;11.14;47.87;101580.94;10429699;28;20235;-65
2024/01/31 09:47:43;;;;;;;17.20;11.80;;;;;;;12.68;45.45;101455.91;10425599;28;20236;-65
2024/01/31 09:52:52;;;;;;;14.67;11.30;;;;;;;14.07;42.89;101465.56;10432740;28;21176;-65
2024/01/31 09:57:54;;;;;;;18.77;13.70;;;;;;;12.21;45.51;101580.47;10422483;28;20246;-65
2024/01/31 10:02:56;;;;;;;18.30;14.90;;;;;;;12.97;44.21;101535.34;10434618;28;20312;-65
2024/01/31 10:08:02;;;;;;;14.53;11.43;;;;;;;13.13;44.59;101465.59;10432149;28;20603;-64
2024/01/31 10:13:06;;;;;;;17.93;12.70;;;;;;;11.03;47.65;101545.25;10440121;28;20237;-65
2024/01/31 10:18:08;;;;;;;16.40;12.53;;;;;;;13.50;44.23;101396.31;10418619;28;20235;-65
2024/01/31 10:23:15;;;;;;;15.10;11.80;;;;;;;10.83;48.05;101522.19;10433431;28;20226;-65
2024/01/31 10:28:19;;;;;;;16.63;12.47;;;;;;;11.41;47.74;101454.19;10428830;28;20226;-64
2024/01/31 10:33:22;;;;;;;15.37;12.87;;;;;;;11.12;49.10;101392.69;10433327;28;20286;-65
2024/01/31 10:38:24;;;;;;;17.13;13.07;;;;;;;12.12;47.40;101377.47;10425967;28;20249;-65
2024/01/31 10:43:27;;;;;;;17.57;11.77;;;;;;;11.67;47.59;101419.47;10415897;28;20228;-66
2024/01/31 10:48:29;;;;;;;16.83;11.83;;;;;;;12.29;47.17;101352.41;10429500;28;20773;-66
2024/01/31 10:53:32;;;;;;;19.67;12.50;;;;;;;12.41;47.07;101328.84;10536616;22;20770;-34
2024/01/31 10:58:34;;;;;;;16.30;11.53;;;;;;;12.60;47.39;101294.72;10480953;28;20252;-35
2024/01/31 11:06:24;;;;;;;15.23;12.53;;;;;;;10.31;52.15;101252.25;10544873;27;20719;-72
2024/01/31 11:11:26;;;;;;;19.63;13.80;;;;;;;9.72;52.89;101334.38;10535858;28;20266;-72
2024/01/31 11:16:28;;;;;;;16.23;12.70;;;;;;;10.66;51.26;101363.09;10529858;28;20313;-72
2024/01/31 11:21:39;;;;;;;19.23;13.73;;;;;;;10.19;52.50;101336.34;10544603;28;20270;-72
2024/01/31 11:26:41;;;;;;;15.80;12.30;;;;;;;10.01;52.23;101376.34;10532796;28;20280;-73
2024/01/31 11:31:43;;;;;;;16.57;12.07;;;;;;;11.54;49.35;101402.88;10531338;28;20241;-72
2024/01/31 11:36:45;;;;;;;15.40;13.33;;;;;;;11.19;51.73;101254.47;10533989;28;20238;-72
2024/01/31 11:41:46;;;;;;;16.97;13.40;;;;;;;11.33;51.13;101270.00;10537797;28;20234;-72
2024/01/31 11:46:50;;;;;;;18.10;13.83;;;;;;;11.52;51.11;101234.13;10533811;28;20325;-72
2024/01/31 11:51:52;;;;;;;16.50;12.67;;;;;;;11.62;50.53;101263.53;10531611;28;20665;-72
2024/01/31 11:56:54;;;;;;;18.57;12.53;;;;;;;10.90;51.54;101317.09;10528460;28;20258;-72
2024/01/31 12:01:56;;;;;;;18.10;14.07;;;;;;;11.44;49.60;101393.06;10530391;28;20317;-73
2024/01/31 12:07:04;;;;;;;16.17;11.07;;;;;;;12.42;48.70;101284.91;10530992;28;20232;-73
2024/01/31 12:12:06;;;;;;;16.13;10.90;;;;;;;12.73;48.03;101348.84;10535071;28;20671;-72
2024/01/31 12:17:22;;;;;;;15.97;11.13;;;;;;;12.19;48.40;101414.25;10552328;28;20313;-71
2024/01/31 12:22:24;;;;;;;18.40;12.10;;;;;;;11.55;50.68;101306.22;10541520;28;20243;-73
2024/01/31 12:27:25;;;;;;;17.57;10.77;;;;;;;11.99;48.92;101393.94;10501272;28;20287;-72
2024/01/31 12:32:27;;;;;;;14.20;11.87;;;;;;;11.77;50.59;101277.25;10498269;28;20256;-71
2024/01/31 12:37:29;;;;;;;13.20;10.77;;;;;;;12.00;49.53;101293.69;10496786;28;20234;-73
2024/01/31 12:42:31;;;;;;;15.47;10.97;;;;;;;12.63;48.43;101284.50;10517968;28;20325;-71
2024/01/31 12:47:34;;;;;;;13.90;11.23;;;;;;;11.51;50.49;101274.53;10535456;28;20254;-70
2024/01/31 12:52:36;;;;;;;14.10;11.07;;;;;;;11.90;49.20;101362.69;10505224;28;21870;-71
2024/01/31 12:57:37;;;;;;;14.20;10.57;;;;;;;12.84;47.87;101305.59;10501771;28;20258;-72
2024/01/31 13:02:39;;;;;;;14.70;11.17;;;;;;;11.28;49.08;101469.75;10503874;28;20457;-71
2024/01/31 13:07:41;;;;;;;12.37;10.23;;;;;;;13.52;46.37;101341.38;10504317;28;20325;-72
2024/01/31 13:12:43;;;;;;;13.63;10.23;;;;;;;13.42;46.09;101365.72;10508316;28;20626;-71
2024/01/31 13:17:46;;;;;;;14.50;9.83;;;;;;;12.82;47.99;101298.69;10502569;28;20410;-70
2024/01/31 13:22:48;;;;;;;15.80;8.87;;;;;;;14.12;45.27;101317.84;10500229;28;20709;-71
2024/01/31 13:27:50;;;;;;;14.70;10.03;;;;;;;12.03;49.00;101392.66;10515190;28;20225;-70
2024/01/31 13:32:52;;;;;;;13.60;10.77;;;;;;;10.51;51.82;101394.84;10539063;28;20466;-74
2024/01/31 13:37:55;;;;;;;13.23;10.17;;;;;;;10.87;51.39;101345.00;10539988;28;20231;-74
2024/01/31 13:42:56;;;;;;;13.30;10.10;;;;;;;11.94;50.47;101206.63;10537436;28;20454;-75
2024/01/31 13:47:58;;;;;;;16.00;11.17;;;;;;;11.18;50.56;101333.97;10540692;28;20227;-74
2024/01/31 13:53:00;;;;;;;20.13;15.00;;;;;;;10.26;53.38;101260.72;10535233;28;20291;-73
2024/01/31 13:58:01;;;;;;;18.50;14.90;;;;;;;10.50;51.74;101348.50;10522604;28;20283;-75
2024/01/31 14:03:03;;;;;;;16.93;11.73;;;;;;;11.13;52.26;101145.22;10540056;28;20243;-75
2024/01/31 14:08:06;;;;;;;23.27;15.73;;;;;;;10.57;53.23;101190.00;10539343;28;20615;-75
2024/01/31 14:13:08;;;;;;;17.73;11.87;;;;;;;11.03;51.48;101309.53;10536101;28;20261;-73
2024/01/31 14:18:09;;;;;;;14.63;11.13;;;;;;;10.61;52.17;101260.97;10536261;28;20445;-73
2024/01/31 14:23:15;;;;;;;15.90;11.70;;;;;;;10.84;52.20;101221.28;10520449;28;20237;-73
2024/01/31 14:28:38;;;;;;;16.53;12.10;;;;;;;10.07;52.91;101312.44;10546136;28;20241;-73
2024/01/31 14:33:40;;;;;;;16.70;12.67;;;;;;;11.48;51.32;101152.34;10543890;28;20316;-71
2024/01/31 14:38:42;;;;;;;15.43;12.20;;;;;;;11.10;52.76;101103.50;10542935;28;20238;-72
2024/01/31 14:43:44;;;;;;;12.00;9.07;;;;;;;10.87;51.62;101176.31;10541485;28;20317;-72
2024/01/31 14:48:46;;;;;;;14.93;9.70;;;;;;;11.05;52.10;101077.19;10541601;28;20242;-71
2024/01/31 14:53:47;;;;;;;14.17;8.93;;;;;;;10.20;52.28;101188.22;10526722;28;20287;-71
2024/01/31 14:58:49;;;;;;;13.43;8.67;;;;;;;10.46;50.70;101298.09;10536425;28;20226;-73
2024/01/31 15:03:51;;;;;;;11.27;8.00;;;;;;;11.38;49.98;101144.41;10539190;28;20260;-77
2024/01/31 15:08:52;;;;;;;14.20;8.60;;;;;;;10.64;49.95;101315.06;10537860;28;20240;-71
2024/01/31 15:13:55;;;;;;;11.30;7.63;;;;;;;11.54;48.10;101306.34;10534134;28;20230;-74
2024/01/31 15:18:57;;;;;;;14.43;9.73;;;;;;;11.61;48.86;101216.28;10542941;28;20309;-69
2024/01/31 15:23:59;;;;;;;12.97;8.87;;;;;;;11.09;50.24;101192.91;10534545;28;20241;-70
2024/01/31 15:29:01;;;;;;;10.67;8.37;;;;;;;12.61;47.26;101229.28;10538417;28;20324;-73
2024/01/31 15:34:03;;;;;;;12.13;9.00;;;;;;;12.17;47.52;101324.16;10522838;28;20225;-72
2024/01/31 15:39:05;;;;;;;13.03;9.57;;;;;;;11.95;48.37;101296.84;10544856;28;20313;-72
2024/01/31 15:44:07;;;;;;;13.70;9.60;;;;;;;11.95;48.38;101306.75;10537103;28;20337;-71
2024/01/31 15:49:09;;;;;;;19.10;12.40;;;;;;;12.56;47.55;101221.72;10540197;28;20687;-73
2024/01/31 15:54:11;;;;;;;12.63;9.90;;;;;;;12.83;46.88;101212.56;10546499;28;20225;-72
2024/01/31 15:59:14;;;;;;;12.53;9.90;;;;;;;12.13;47.17;101393.41;10536955;28;20705;-72
2024/01/31 16:04:15;;;;;;;14.13;8.83;;;;;;;12.81;47.26;101249.50;10545958;27;20315;-72
2024/01/31 16:09:18;;;;;;;12.33;9.37;;;;;;;12.93;46.11;101331.47;10551928;28;20717;-72
2024/01/31 16:14:20;;;;;;;14.27;10.23;;;;;;;13.32;45.65;101280.88;10530374;27;20230;-72
2024/01/31 16:19:22;;;;;;;15.40;9.43;;;;;;;13.66;45.04;101278.84;10549885;28;20268;-72
2024/01/31 16:24:24;;;;;;;13.10;9.00;;;;;;;12.03;48.32;101287.16;10543836;28;20244;-72
2024/01/31 16:29:25;;;;;;;12.77;8.97;;;;;;;11.19;50.44;101201.72;10544376;28;20781;-72
2024/01/31 16:34:27;;;;;;;11.53;8.63;;;;;;;10.02;51.50;101330.72;10542922;28;20570;-73
2024/01/31 16:39:29;;;;;;;12.97;9.03;;;;;;;9.63;51.79;101340.59;10545828;28;20321;-72
2024/01/31 16:44:30;;;;;;;12.60;9.73;;;;;;;9.22;53.04;101300.59;10544058;28;20235;-72
2024/01/31 16:54:40;;;;;;;13.20;10.27;;;;;;;11.20;49.51;101218.63;10274282;28;20261;-36
2024/01/31 16:59:42;;;;;;;12.90;9.90;;;;;;;12.09;47.16;101257.88;10252950;28;20654;-36
2024/01/31 17:04:43;;;;;;;13.70;10.17;;;;;;;11.83;47.71;101222.16;10239525;23;20623;-36
2024/01/31 17:09:45;;;;;;;14.83;9.80;;;;;;;10.14;50.51;101280.59;10273341;28;20939;-36
2024/01/31 17:14:48;;;;;;;13.17;10.60;;;;;;;10.61;49.67;101258.31;10268403;28;20239;-35
2024/01/31 17:19:50;;;;;;;16.27;9.33;;;;;;;12.06;47.04;101289.53;10269689;28;20242;-35
2024/01/31 17:24:53;;;;;;;14.33;10.63;;;;;;;11.76;47.68;101276.44;10259418;28;20616;-44
2024/01/31 17:29:55;;;;;;;15.10;9.83;;;;;;;11.11;48.58;101262.41;10262095;28;20317;-43
2024/01/31 17:34:57;;;;;;;11.03;9.50;;;;;;;11.31;48.58;101229.09;10265066;28;20249;-43
2024/01/31 17:39:58;;;;;;;16.60;10.13;;;;;;;9.29;50.82;101434.47;10261249;28;20832;-41
2024/01/31 17:45:00;;;;;;;13.93;10.00;;;;;;;9.80;51.89;101208.03;10259898;28;20297;-43
2024/01/31 17:50:07;;;;;;;14.37;9.43;;;;;;;10.83;49.77;101200.84;10269050;28;20235;-43
2024/01/31 17:55:11;;;;;;;12.43;9.63;;;;;;;9.03;52.83;101280.91;10268180;28;20233;-43
2024/01/31 18:00:14;;;;;;;11.53;9.13;;;;;;;10.55;51.11;101125.91;10304325;28;20765;-42
2024/01/31 18:05:20;;;;;;;13.73;9.57;;;;;;;10.70;50.40;101185.97;10301313;28;20678;-42
2024/01/31 18:10:21;;;;;;;13.73;10.60;;;;;;;10.87;49.70;101229.03;10308199;28;20234;-43
2024/01/31 18:15:23;;;;;;;14.97;10.10;;;;;;;10.22;50.95;101253.13;10298318;28;20234;-43
2024/01/31 18:20:29;;;;;;;16.63;11.93;;;;;;;11.94;47.91;101170.91;10306849;28;20237;-43
2024/01/31 18:25:30;;;;;;;15.57;10.77;;;;;;;11.84;48.06;101215.78;10303644;28;20841;-43
2024/01/31 18:30:33;;;;;;;16.83;11.60;;;;;;;12.09;47.23;101231.03;10301896;28;20257;-43
2024/01/31 18:35:34;;;;;;;14.50;11.13;;;;;;;12.79;46.09;101219.28;10293399;28;20445;-43
2024/01/31 18:40:36;;;;;;;16.40;11.27;;;;;;;12.30;46.71;101244.06;10298834;28;20599;-42
2024/01/31 18:45:38;;;;;;;12.40;9.90;;;;;;;10.96;49.31;101246.00;10296851;28;20276;-43
2024/01/31 18:50:40;;;;;;;13.70;10.13;;;;;;;9.69;51.78;101257.16;10304013;28;20619;-43
2024/01/31 18:55:42;;;;;;;18.47;10.40;;;;;;;11.87;47.85;101194.84;10281560;28;20234;-43
2024/01/31 19:00:44;;;;;;;13.97;10.40;;;;;;;11.55;48.64;101174.00;10303548;28;20324;-43
2024/01/31 19:05:45;;;;;;;14.87;10.90;;;;;;;11.84;47.94;101125.44;10300650;28;20295;-43
2024/01/31 19:10:47;;;;;;;16.27;10.57;;;;;;;10.57;50.14;101224.81;10303421;28;20238;-43
2024/01/31 19:15:49;;;;;;;14.57;10.43;;;;;;;10.16;51.65;101110.09;10289893;28;20621;-43
2024/01/31 19:20:51;;;;;;;12.90;10.03;;;;;;;10.54;50.40;101140.28;10301080;28;20292;-42
2024/01/31 19:25:53;;;;;;;17.50;11.40;;;;;;;10.40;49.48;101262.06;10299744;28;20703;-43
2024/01/31 19:30:54;;;;;;;14.33;10.23;;;;;;;11.15;48.28;101216.38;10311633;28;20233;-43
2024/01/31 19:35:56;;;;;;;14.93;11.27;;;;;;;11.06;48.31;101254.81;10306611;28;20237;-43
2024/01/31 19:40:58;;;;;;;16.10;11.47;;;;;;;11.13;47.94;101271.97;10309051;28;20682;-43
2024/01/31 19:45:59;;;;;;;17.00;11.63;;;;;;;11.35;48.34;101190.28;10307363;28;20373;-43
2024/01/31 19:51:01;;;;;;;16.60;10.93;;;;;;;10.64;49.84;101260.69;10310322;28;20241;-43
2024/01/31 19:56:03;;;;;;;14.80;10.90;;;;;;;10.22;50.35;101295.91;10302891;28;20248;-43
2024/01/31 20:01:05;;;;;;;14.93;11.33;;;;;;;12.05;47.53;101156.41;10307790;28;20691;-43
2024/01/31 20:06:07;;;;;;;15.17;11.23;;;;;;;11.25;49.07;101173.44;10307712;28;20238;-43
2024/01/31 20:11:13;;;;;;;17.37;12.40;;;;;;;10.55;49.73;101281.16;10310089;28;20238;-44
2024/01/31 20:16:16;;;;;;;14.83;11.33;;;;;;;10.74;49.59;101234.69;10303311;28;20489;-43
2024/01/31 20:21:19;;;;;;;16.13;11.23;;;;;;;9.66;51.76;101169.25;10284674;28;20246;-43
2024/01/31 20:26:21;;;;;;;14.37;11.00;;;;;;;11.33;48.85;101098.47;10312094;28;20264;-43
2024/01/31 20:31:22;;;;;;;15.23;11.13;;;;;;;9.00;52.31;101261.66;10308487;28;20236;-43
2024/01/31 20:36:24;;;;;;;15.03;10.77;;;;;;;10.29;50.97;101091.88;10309666;28;20233;-43
2024/01/31 20:41:26;;;;;;;14.30;11.03;;;;;;;9.86;51.39;101105.91;10304053;28;20239;-43
2024/01/31 20:46:28;;;;;;;14.37;10.93;;;;;;;9.51;51.88;101108.22;10311404;28;20245;-43
2024/01/31 20:51:32;;;;;;;13.33;10.20;;;;;;;10.25;50.44;101117.22;10302675;28;20238;-43
2024/01/31 20:56:34;;;;;;;13.53;9.50;;;;;;;10.11;51.41;101008.91;10313826;28;20289;-43
2024/01/31 21:01:35;;;;;;;11.03;9.60;;;;;;;9.62;52.08;101067.13;10291622;28;20714;-43
2024/01/31 21:06:37;;;;;;;14.90;9.50;;;;;;;11.00;49.20;101070.59;10307990;28;20256;-43
2024/01/31 21:11:39;;;;;;;14.60;10.07;;;;;;;11.11;48.83;101040.06;10310488;28;20629;-43
2024/01/31 21:16:41;;;;;;;11.60;8.37;;;;;;;10.89;48.84;101141.34;10310316;28;20242;-43
2024/01/31 21:21:42;;;;;;;11.13;8.57;;;;;;;9.52;51.12;101221.31;10308987;28;20317;-43
2024/01/31 21:26:44;;;;;;;14.00;9.03;;;;;;;9.96;51.71;101048.69;10303666;28;20242;-43
2024/01/31 21:31:46;;;;;;;11.17;8.50;;;;;;;10.24;50.65;101067.41;10305425;28;20241;-43
2024/01/31 21:36:48;;;;;;;16.37;10.33;;;;;;;8.68;52.09;101262.66;10309456;28;20233;-44
2024/01/31 21:41:49;;;;;;;14.10;9.27;;;;;;;10.99;48.66;101101.91;10307601;28;20292;-43
2024/01/31 21:46:51;;;;;;;14.77;10.30;;;;;;;11.20;48.86;101047.16;10306482;28;20734;-43
2024/01/31 21:51:53;;;;;;;11.70;9.37;;;;;;;9.98;50.53;101200.97;10304297;28;20260;-43
2024/01/31 21:56:55;;;;;;;13.33;9.40;;;;;;;10.56;49.68;101180.28;10305234;28;20605;-43
2024/01/31 22:01:56;;;;;;;10.97;9.23;;;;;;;10.60;49.77;101120.94;10304877;28;20341;-43
2024/01/31 22:06:58;;;;;;;13.70;10.57;;;;;;;9.59;51.98;101134.22;10306360;28;20256;-44
2024/01/31 22:12:01;;;;;;;12.90;9.97;;;;;;;10.86;49.74;101040.72;10304626;28;20202;-44
2024/01/31 22:17:03;;;;;;;14.47;10.70;;;;;;;10.63;49.42;101150.09;10282065;28;20358;-43
2024/01/31 22:22:06;;;;;;;12.70;10.27;;;;;;;11.26;48.74;101074.16;10305908;28;20309;-43
2024/01/31 22:27:08;;;;;;;19.07;12.07;;;;;;;11.05;48.98;101103.97;10289741;28;20511;-43
2024/01/31 22:32:10;;;;;;;15.37;10.97;;;;;;;11.04;49.38;101083.53;10298390;28;20233;-44
2024/01/31 22:37:11;;;;;;;14.00;11.43;;;;;;;11.31;49.27;101014.72;10306712;28;20230;-43
2024/01/31 22:42:13;;;;;;;14.40;10.60;;;;;;;11.10;49.72;101009.72;10286787;28;20206;-43
2024/01/31 22:47:15;;;;;;;13.97;11.37;;;;;;;11.18;49.70;100996.41;10302924;28;20621;-43
2024/01/31 22:52:17;;;;;;;12.13;9.80;;;;;;;10.87;49.94;101034.38;10306658;28;20641;-43